Time;durP1;ratioP1;P1;durP2;ratioP2;P2;SDS_P1;SDS_P2;PMS_P1;PMS_P2;Temp;Humidity;BMP_temperature;BMP_pressure;BME280_temperature;BME280_humidity;BME280_pressure;Samples;Min_cycle;Max_cycle;Signal;HPM_P1;HPM_P2
2021/09/17 00:02:08;;;;;;;;;11.00;8.67;;;;;21.83;56.12;98007.13;4977321;28;102397;-87
2021/09/17 00:04:38;;;;;;;;;8.00;8.00;;;;;21.85;56.11;98004.06;4973352;28;102325;-87
2021/09/17 00:07:06;;;;;;;;;9.33;8.00;;;;;21.82;55.95;98002.72;4975174;28;102514;-87
2021/09/17 00:09:34;;;;;;;;;9.33;8.00;;;;;21.84;56.04;98013.44;4973655;28;103528;-86
2021/09/17 00:12:01;;;;;;;;;8.00;7.00;;;;;21.84;56.13;98005.19;4976509;28;102586;-87
2021/09/17 00:14:29;;;;;;;;;8.67;8.67;;;;;21.84;56.15;98005.97;4972195;28;103207;-87
2021/09/17 00:16:59;;;;;;;;;9.00;8.00;;;;;21.83;56.16;98000.78;4982916;28;102442;-86
2021/09/17 00:19:26;;;;;;;;;12.00;10.67;;;;;21.84;55.96;98005.19;4978627;28;104309;-86
2021/09/17 00:21:54;;;;;;;;;9.33;8.67;;;;;21.83;55.94;97996.09;4978264;28;102556;-86
2021/09/17 00:24:23;;;;;;;;;10.00;9.33;;;;;21.83;56.42;98000.78;4977262;28;102239;-86
2021/09/17 00:26:51;;;;;;;;;7.67;7.67;;;;;21.83;56.15;97995.28;4978954;28;102191;-86
2021/09/17 00:29:21;;;;;;;;;9.67;9.00;;;;;21.83;55.88;97998.03;4975265;28;104097;-86
2021/09/17 00:31:48;;;;;;;;;7.33;7.00;;;;;21.83;56.13;97995.28;4980769;28;102505;-86
2021/09/17 00:34:18;;;;;;;;;8.00;8.00;;;;;21.81;56.24;97988.13;4962132;28;103634;-86
2021/09/17 00:36:45;;;;;;;;;8.00;8.00;;;;;21.81;56.06;97998.31;4975997;28;102397;-87
2021/09/17 00:39:15;;;;;;;;;7.33;6.67;;;;;21.81;56.44;97988.13;4976143;28;104359;-86
2021/09/17 00:41:42;;;;;;;;;8.00;7.00;;;;;21.81;56.44;97990.88;4980155;28;102650;-86
2021/09/17 00:44:10;;;;;;;;;8.00;7.00;;;;;21.82;56.44;97988.94;4976718;28;102409;-86
2021/09/17 00:46:37;;;;;;;;;9.33;8.00;;;;;21.83;55.60;97990.59;4977349;28;102629;-87
2021/09/17 00:49:04;;;;;;;;;8.67;8.67;;;;;21.82;56.40;97986.19;4974884;28;104246;-87
2021/09/17 00:51:34;;;;;;;;;7.67;7.00;;;;;21.81;55.79;97979.88;4980991;28;102209;-87
2021/09/17 00:54:01;;;;;;;;;7.67;7.67;;;;;21.82;56.44;97977.94;4979308;28;102209;-87
2021/09/17 00:56:29;;;;;;;;;7.33;7.00;;;;;21.81;56.06;97974.38;4958270;28;103473;-86
2021/09/17 00:58:59;;;;;;;;;7.67;7.67;;;;;21.82;56.32;97966.94;4974115;28;103393;-87
2021/09/17 01:01:27;;;;;;;;;7.67;7.33;;;;;21.81;56.29;97962.53;4980835;28;102374;-87
2021/09/17 01:03:55;;;;;;;;;8.00;7.33;;;;;21.81;55.89;97968.03;4975814;28;102405;-87
2021/09/17 01:06:22;;;;;;;;;8.33;7.67;;;;;21.81;55.72;97959.78;4977441;28;102440;-87
2021/09/17 01:08:50;;;;;;;;;10.67;9.33;;;;;21.79;55.98;97960.06;4975417;28;104088;-87
2021/09/17 01:11:17;;;;;;;;;6.33;6.33;;;;;21.80;56.09;97947.94;4976995;28;102209;-86
2021/09/17 01:13:49;;;;;;;;;8.33;8.33;;;;;21.79;56.06;97946.28;4973701;28;102231;-87
2021/09/17 01:16:22;;;;;;;;;7.67;7.33;;;;;21.80;56.10;97949.88;4982018;28;102233;-87
2021/09/17 01:18:52;;;;;;;;;8.33;8.00;;;;;21.80;56.38;97953.44;4974755;28;103728;-87
2021/09/17 01:21:20;;;;;;;;;10.00;9.33;;;;;21.81;56.28;97943.25;4981275;28;102477;-86
2021/09/17 01:23:48;;;;;;;;;8.00;7.33;;;;;21.79;56.21;97945.50;4979917;28;102438;-87
2021/09/17 01:26:16;;;;;;;;;8.33;7.67;;;;;21.80;56.24;97938.84;4974649;28;102605;-87
2021/09/17 01:28:43;;;;;;;;;7.33;7.00;;;;;21.80;55.98;97936.09;4974123;28;102742;-87
2021/09/17 01:31:11;;;;;;;;;6.33;6.00;;;;;21.80;56.46;97933.34;4975229;28;102119;-87
2021/09/17 01:33:38;;;;;;;;;7.00;6.67;;;;;21.79;56.08;97935.28;4973093;28;102384;-86
2021/09/17 01:36:08;;;;;;;;;8.00;6.67;;;;;21.79;56.56;97934.50;4982578;28;102170;-87
2021/09/17 01:38:37;;;;;;;;;8.00;7.00;;;;;21.79;56.26;97935.28;4977816;28;104084;-87
2021/09/17 01:41:04;;;;;;;;;7.67;6.67;;;;;21.80;56.42;97930.59;4978873;28;102166;-87
2021/09/17 01:43:36;;;;;;;;;8.00;7.00;;;;;21.79;55.86;97931.75;4975086;28;102411;-87
2021/09/17 01:46:06;;;;;;;;;7.00;7.00;;;;;21.80;55.86;97933.34;4973420;28;102431;-87
2021/09/17 01:48:33;;;;;;;;;7.33;6.67;;;;;21.81;56.25;97932.25;4978906;28;104242;-87
2021/09/17 01:51:01;;;;;;;;;7.33;6.00;;;;;21.81;56.51;97932.25;4974145;28;102311;-86
2021/09/17 01:53:33;;;;;;;;;7.00;7.00;;;;;21.83;56.84;97930.03;4977213;28;102318;-87
2021/09/17 01:56:00;;;;;;;;;9.00;8.00;;;;;21.81;56.83;97926.75;4974989;28;102250;-87
2021/09/17 01:58:27;;;;;;;;;7.33;6.33;;;;;21.83;56.61;97934.72;4980753;28;104252;-86
2021/09/17 02:00:55;;;;;;;;;6.00;6.00;;;;;21.83;57.02;97934.72;4970464;28;102374;-87
2021/09/17 02:03:23;;;;;;;;;7.00;7.00;;;;;21.82;57.10;97933.91;4975730;28;102622;-87
2021/09/17 02:05:50;;;;;;;;;8.00;8.00;;;;;21.82;57.10;97939.41;4972658;28;102216;-87
2021/09/17 02:08:17;;;;;;;;;6.00;6.00;;;;;21.81;56.78;97935.81;4977120;28;104068;-87
2021/09/17 02:10:48;;;;;;;;;7.00;7.00;;;;;21.81;57.15;97926.75;4974508;28;102238;-87
2021/09/17 02:13:19;;;;;;;;;6.00;6.00;;;;;21.80;56.46;97934.19;4976784;28;102392;-87
2021/09/17 02:15:48;;;;;;;;;8.33;8.33;;;;;21.81;56.54;97938.59;4976683;28;102488;-87
2021/09/17 02:18:15;;;;;;;;;8.00;7.00;;;;;21.80;56.80;97927.84;4977061;28;104046;-87
2021/09/17 02:20:46;;;;;;;;;5.67;5.67;;;;;21.79;56.17;97934.50;4972767;28;102304;-87
2021/09/17 02:23:13;;;;;;;;;7.00;7.00;;;;;21.80;56.28;97930.59;4974349;28;102566;-86
2021/09/17 02:25:41;;;;;;;;;6.67;6.67;;;;;21.79;56.28;97923.47;4971187;28;102622;-86
2021/09/17 02:28:08;;;;;;;;;7.67;6.33;;;;;21.79;56.60;97924.28;4973027;28;104068;-86
2021/09/17 02:30:35;;;;;;;;;5.33;4.67;;;;;21.80;57.06;97919.59;4980411;28;102438;-86
2021/09/17 02:33:02;;;;;;;;;7.00;7.00;;;;;21.81;56.69;97915.75;4969908;28;102175;-86
2021/09/17 02:35:29;;;;;;;;;6.33;6.33;;;;;21.79;56.70;97917.97;4977751;28;102435;-86
2021/09/17 02:37:57;;;;;;;;;5.67;4.67;;;;;21.78;56.27;97914.41;4972001;28;104074;-86
2021/09/17 02:40:28;;;;;;;;;6.00;6.00;;;;;21.76;56.50;97913.03;4972661;28;103348;-86
2021/09/17 02:42:56;;;;;;;;;7.00;6.33;;;;;21.74;56.74;97926.28;4973928;28;102668;-86
2021/09/17 02:45:23;;;;;;;;;6.00;5.33;;;;;21.72;56.72;97911.97;4975717;28;103339;-86
2021/09/17 02:47:55;;;;;;;;;8.33;6.33;;;;;21.71;56.57;97913.91;4979238;28;104244;-86
2021/09/17 02:50:22;;;;;;;;;7.00;7.00;;;;;21.70;56.78;97900.44;4974036;28;104029;-86
2021/09/17 02:52:50;;;;;;;;;6.67;5.67;;;;;21.69;57.13;97912.56;4976480;28;102380;-86
2021/09/17 02:55:23;;;;;;;;;5.33;5.33;;;;;21.70;56.65;97914.22;4974394;28;102354;-86
2021/09/17 02:57:50;;;;;;;;;8.00;7.33;;;;;21.71;56.23;97915.81;4976313;28;103507;-86
2021/09/17 03:00:18;;;;;;;;;7.00;7.00;;;;;21.69;56.38;97915.31;4976189;28;103880;-86
2021/09/17 03:02:45;;;;;;;;;6.00;6.00;;;;;21.70;56.30;97909.50;4979274;28;102401;-86
2021/09/17 03:05:14;;;;;;;;;7.00;6.00;;;;;21.69;56.34;97912.56;4976706;28;102688;-86
2021/09/17 03:07:47;;;;;;;;;5.33;5.33;;;;;21.70;56.50;97908.72;4976037;28;103153;-86
2021/09/17 03:10:14;;;;;;;;;8.33;7.67;;;;;21.68;56.61;97908.16;4977731;28;102195;-86
2021/09/17 03:12:41;;;;;;;;;5.33;5.33;;;;;;;;4973705;28;102569;-86
2021/09/17 03:15:13;;;;;;;;;6.00;6.00;;;;;21.67;56.52;97898.25;4976466;28;102206;-86
2021/09/17 03:17:40;;;;;;;;;7.00;7.00;;;;;;;;4974477;28;104729;-86
2021/09/17 03:20:10;;;;;;;;;5.67;5.67;;;;;21.66;56.46;97888.34;4974630;28;102360;-86
2021/09/17 03:22:37;;;;;;;;;7.00;7.00;;;;;21.63;56.42;97886.19;4971030;28;103332;-86
2021/09/17 03:25:10;;;;;;;;;7.00;6.67;;;;;21.64;56.15;97899.66;4974641;28;104018;-86
2021/09/17 03:27:37;;;;;;;;;6.67;6.67;;;;;21.63;56.66;97891.69;4972250;28;103547;-86
2021/09/17 03:30:05;;;;;;;;;6.33;6.00;;;;;21.64;56.35;97904.34;4973520;28;102415;-86
2021/09/17 03:32:32;;;;;;;;;8.00;6.00;;;;;21.63;56.41;97898.03;4972731;28;102183;-86
2021/09/17 03:35:00;;;;;;;;;6.67;5.67;;;;;21.62;56.66;97901.06;4973176;28;104196;-86
2021/09/17 03:37:27;;;;;;;;;5.67;5.33;;;;;21.63;55.93;97899.94;4975083;28;104156;-86
2021/09/17 03:39:55;;;;;;;;;5.33;5.00;;;;;21.62;56.45;97901.06;4973785;28;102234;-86
2021/09/17 03:42:22;;;;;;;;;5.00;5.00;;;;;21.63;56.36;97908.19;4972992;28;103064;-86
2021/09/17 03:44:49;;;;;;;;;6.00;6.00;;;;;21.63;56.17;97908.19;4980637;28;102307;-86
2021/09/17 03:47:16;;;;;;;;;5.33;4.67;;;;;21.64;56.22;97905.19;4974718;28;104174;-87
2021/09/17 03:49:46;;;;;;;;;9.33;6.67;;;;;21.63;56.37;97898.03;4978646;28;103312;-87
2021/09/17 03:52:14;;;;;;;;;6.33;6.00;;;;;21.63;56.25;97897.19;4977018;28;102474;-87
2021/09/17 03:54:44;;;;;;;;;5.67;5.67;;;;;21.63;55.82;97909.03;4979275;28;102520;-87
2021/09/17 03:57:11;;;;;;;;;6.67;6.00;;;;;21.65;55.70;97906.00;4980304;28;103953;-87
2021/09/17 03:59:38;;;;;;;;;5.00;5.00;;;;;21.62;56.05;97912.88;4979880;28;102636;-87
2021/09/17 04:02:05;;;;;;;;;6.00;6.00;;;;;21.60;56.00;97906.03;4974910;28;103683;-87
2021/09/17 04:04:33;;;;;;;;;7.67;6.00;;;;;21.60;55.69;97903.28;4978223;28;102481;-87
2021/09/17 04:07:00;;;;;;;;;6.33;5.67;;;;;21.56;55.78;97899.47;4979403;28;104029;-87
2021/09/17 04:09:27;;;;;;;;;6.00;6.00;;;;;21.58;56.11;97913.75;4979302;28;102392;-87
2021/09/17 04:11:55;;;;;;;;;5.67;5.67;;;;;21.58;55.93;97905.50;4980520;28;102417;-87
2021/09/17 04:14:22;;;;;;;;;7.00;6.00;;;;;21.56;55.67;97914.06;4979469;28;102485;-90
2021/09/17 04:16:49;;;;;;;;;4.67;4.67;;;;;21.56;55.63;97916.81;4975886;28;103261;-87
2021/09/17 04:19:16;;;;;;;;;7.00;7.00;;;;;21.55;55.96;97911.59;4975581;28;102231;-87
2021/09/17 04:21:43;;;;;;;;;5.67;5.67;;;;;21.55;55.63;97917.91;4974337;28;102551;-87
2021/09/17 04:24:11;;;;;;;;;6.00;6.00;;;;;21.55;55.40;97923.41;4979528;28;104010;-86
2021/09/17 04:26:41;;;;;;;;;5.00;5.00;;;;;21.53;55.56;97919.28;4980179;28;104014;-87
2021/09/17 04:29:08;;;;;;;;;3.67;3.67;;;;;21.52;56.09;97918.50;4977357;28;102522;-87
2021/09/17 04:31:35;;;;;;;;;5.00;5.00;;;;;21.54;55.96;97934.69;4975604;28;102434;-87
2021/09/17 04:34:04;;;;;;;;;4.00;3.00;;;;;21.52;55.66;97924.00;4975285;28;103957;-87
2021/09/17 04:36:31;;;;;;;;;5.67;5.33;;;;;21.50;55.95;97928.94;4976995;28;104310;-86
2021/09/17 04:38:59;;;;;;;;;4.33;4.00;;;;;21.51;55.81;97940.78;4975873;28;102333;-86
2021/09/17 04:41:26;;;;;;;;;4.33;4.33;;;;;21.48;55.53;97933.13;4975261;28;102420;-86
2021/09/17 04:43:53;;;;;;;;;6.00;5.33;;;;;21.49;55.99;97929.22;4984372;28;102489;-86
2021/09/17 04:46:20;;;;;;;;;6.00;5.00;;;;;21.48;55.53;97935.88;4976445;28;104053;-86
2021/09/17 04:48:47;;;;;;;;;4.00;4.00;;;;;21.49;55.44;97943.00;4978655;28;102586;-86
2021/09/17 04:51:14;;;;;;;;;5.67;5.33;;;;;21.46;55.44;97936.13;4979017;28;102467;-86
2021/09/17 04:53:41;;;;;;;;;5.00;4.00;;;;;21.47;56.09;97931.47;4981064;28;102555;-86
2021/09/17 04:56:08;;;;;;;;;4.00;2.67;;;;;21.46;55.76;97943.56;4981519;28;104070;-86
2021/09/17 04:58:43;;;;;;;;;4.00;4.00;;;;;21.44;55.50;97943.84;4976294;28;102113;-86
2021/09/17 05:01:11;;;;;;;;;3.33;3.33;;;;;21.46;55.72;97940.81;4950610;28;102449;-86
2021/09/17 05:03:38;;;;;;;;;4.00;4.00;;;;;21.45;55.34;97944.66;4981252;28;102367;-86
2021/09/17 05:06:06;;;;;;;;;3.00;3.00;;;;;21.45;55.60;97944.66;4974977;28;104170;-86
2021/09/17 05:08:33;;;;;;;;;3.00;3.00;;;;;21.42;55.59;97950.75;4977027;28;102576;-86
2021/09/17 05:11:00;;;;;;;;;4.00;4.00;;;;;21.42;55.77;97939.75;4977817;28;102418;-86
2021/09/17 05:13:27;;;;;;;;;4.67;3.67;;;;;21.39;55.72;97952.13;4976594;28;103088;-86
2021/09/17 05:15:54;;;;;;;;;4.67;4.00;;;;;21.38;55.46;97949.69;4978035;28;104076;-86
2021/09/17 05:18:23;;;;;;;;;3.00;3.00;;;;;21.38;55.50;97952.44;4975855;28;102124;-86
2021/09/17 05:20:50;;;;;;;;;3.67;3.00;;;;;21.38;55.26;97955.19;4974108;28;102412;-86
2021/09/17 05:23:17;;;;;;;;;4.00;4.00;;;;;21.35;55.55;97953.81;4979881;28;104057;-86
2021/09/17 05:25:44;;;;;;;;;3.00;3.00;;;;;21.35;55.22;97954.66;4978579;28;104034;-86
2021/09/17 05:28:11;;;;;;;;;3.00;3.00;;;;;21.34;55.39;97955.75;4976257;28;102408;-86
2021/09/17 05:30:39;;;;;;;;;2.00;2.00;;;;;21.36;54.76;97961.78;4978681;28;102030;-86
2021/09/17 05:33:06;;;;;;;;;2.67;2.00;;;;;21.36;54.89;97952.72;4974942;28;102454;-86
2021/09/17 05:35:33;;;;;;;;;3.00;3.00;;;;;21.31;55.41;97956.31;4974924;28;103949;-86
2021/09/17 05:38:00;;;;;;;;;2.33;2.33;;;;;21.28;54.84;97951.41;4977305;28;104796;-86
2021/09/17 05:40:27;;;;;;;;;2.00;2.00;;;;;21.27;55.01;97952.50;4975041;28;102512;-86
2021/09/17 05:42:54;;;;;;;;;2.00;2.00;;;;;21.32;54.44;97954.41;4975539;28;102066;-86
2021/09/17 05:45:22;;;;;;;;;2.67;2.33;;;;;21.31;54.74;97950.00;4978280;28;103958;-86
2021/09/17 05:47:49;;;;;;;;;1.67;1.00;;;;;21.31;54.49;97950.81;4976948;28;102497;-86
2021/09/17 05:50:16;;;;;;;;;4.00;3.00;;;;;21.27;54.51;97955.25;4975013;28;102578;-86
2021/09/17 05:52:43;;;;;;;;;1.67;1.67;;;;;21.26;54.66;97959.09;4977884;28;102672;-86
2021/09/17 05:55:11;;;;;;;;;4.00;2.33;;;;;21.26;54.98;97963.78;4977366;28;104239;-86
2021/09/17 05:57:38;;;;;;;;;3.00;3.00;;;;;21.24;54.53;97963.25;4976337;28;102515;-86
2021/09/17 06:00:07;;;;;;;;;2.00;2.00;;;;;21.25;54.46;97957.47;4976215;28;102067;-86
2021/09/17 06:02:34;;;;;;;;;2.00;2.00;;;;;21.25;54.53;97964.91;4980399;28;102522;-86
2021/09/17 06:05:03;;;;;;;;;1.67;1.67;;;;;21.25;54.34;97975.91;4975713;28;104408;-86
2021/09/17 06:07:30;;;;;;;;;1.67;1.67;;;;;21.21;54.48;97970.13;4977288;28;102310;-86
2021/09/17 06:10:04;;;;;;;;;3.00;3.00;;;;;21.20;54.64;97975.94;4973716;28;102342;-86
2021/09/17 06:12:31;;;;;;;;;1.33;1.33;;;;;21.20;54.21;97981.44;4976642;28;102532;-86
2021/09/17 06:14:59;;;;;;;;;2.33;2.33;;;;;21.22;54.38;97985.53;4974703;28;104164;-86
2021/09/17 06:17:26;;;;;;;;;2.00;2.00;;;;;21.20;54.44;97979.50;4978743;28;103009;-86
2021/09/17 06:20:12;;;;;;;;;3.00;2.67;;;;;21.22;54.22;97974.53;4976371;28;102456;-86
2021/09/17 06:22:41;;;;;;;;;1.67;1.67;;;;;21.20;54.64;97986.94;4976412;28;102389;-86
2021/09/17 06:25:09;;;;;;;;;1.67;1.67;;;;;21.19;54.21;97985.28;4977127;28;104359;-86
2021/09/17 06:27:36;;;;;;;;;2.67;2.67;;;;;21.20;54.33;97979.50;4978110;28;102360;-86
2021/09/17 06:30:08;;;;;;;;;2.67;2.67;;;;;21.19;54.09;97990.78;4976736;28;102493;-86
2021/09/17 06:32:37;;;;;;;;;2.33;2.33;;;;;21.16;54.24;97975.69;4979838;28;103292;-86
2021/09/17 06:35:05;;;;;;;;;3.67;2.67;;;;;21.15;54.77;97982.28;4974228;28;103219;-86
2021/09/17 06:37:33;;;;;;;;;4.33;3.00;;;;;21.15;54.90;97993.28;4979235;28;102095;-86
2021/09/17 06:40:01;;;;;;;;;2.33;2.33;;;;;21.13;54.10;97986.41;4976271;28;102202;-89
2021/09/17 06:42:29;;;;;;;;;3.00;2.33;;;;;21.14;54.41;97994.38;4983749;28;102613;-86
2021/09/17 06:44:57;;;;;;;;;3.00;3.00;;;;;21.15;54.65;97989.72;4980828;28;104170;-88
2021/09/17 06:47:25;;;;;;;;;2.67;2.67;;;;;21.13;54.70;97987.25;4978221;28;102369;-89
2021/09/17 06:49:52;;;;;;;;;2.67;2.00;;;;;21.12;54.45;97991.06;4977522;28;103180;-88
2021/09/17 06:52:19;;;;;;;;;4.00;2.67;;;;;21.11;54.78;97986.69;4978911;28;102656;-88
2021/09/17 06:54:47;;;;;;;;;3.00;3.00;;;;;21.10;54.66;97989.72;4974539;28;104147;-91
2021/09/17 06:57:14;;;;;;;;;1.67;1.00;;;;;21.12;54.39;97993.00;4978031;28;102249;-91
2021/09/17 06:59:43;;;;;;;;;3.00;2.00;;;;;21.13;54.23;97989.16;4973925;28;102417;-91
2021/09/17 07:02:10;;;;;;;;;4.00;4.00;;;;;21.11;54.49;97986.69;4978667;28;102414;-92
2021/09/17 07:04:40;;;;;;;;;2.00;2.00;;;;;21.12;54.73;97993.00;4978814;28;104120;-92
2021/09/17 07:07:07;;;;;;;;;3.00;2.67;;;;;21.12;54.47;97993.81;4976512;28;102012;-91
2021/09/17 07:09:34;;;;;;;;;1.67;1.67;;;;;21.10;54.23;97987.78;4973769;28;102446;-91
2021/09/17 07:12:02;;;;;;;;;2.00;2.00;;;;;21.07;54.46;97991.13;4974628;28;102581;-91
2021/09/17 07:14:29;;;;;;;;;3.67;1.67;;;;;21.05;54.81;97978.75;4971631;28;104421;-92
2021/09/17 07:16:56;;;;;;;;;3.00;2.67;;;;;21.07;54.50;97995.78;4975986;28;102163;-92
2021/09/17 07:19:23;;;;;;;;;3.00;2.33;;;;;21.05;54.72;97990.56;4971774;28;102274;-91
2021/09/17 07:21:51;;;;;;;;;3.00;3.00;;;;;21.05;54.11;97989.72;4975801;28;103656;-91
2021/09/17 07:24:18;;;;;;;;;2.00;2.00;;;;;21.08;54.62;97994.66;4976202;28;104168;-91
2021/09/17 07:26:45;;;;;;;;;1.67;1.67;;;;;21.08;54.07;98000.97;4975536;28;103630;-91
2021/09/17 07:29:13;;;;;;;;;2.00;2.00;;;;;21.07;54.72;97990.28;4978344;28;102164;-91
2021/09/17 07:31:41;;;;;;;;;3.00;3.00;;;;;21.05;54.59;97992.47;4981321;28;102459;-92
2021/09/17 07:34:08;;;;;;;;;1.67;1.67;;;;;21.08;54.02;98003.72;4979425;28;105102;-91
2021/09/17 07:36:35;;;;;;;;;2.00;2.00;;;;;21.04;54.38;97997.16;4973875;28;102128;-91
2021/09/17 07:39:03;;;;;;;;;2.00;2.00;;;;;21.07;54.41;97999.38;4979441;28;102236;-91
2021/09/17 07:41:30;;;;;;;;;3.00;1.67;;;;;21.04;54.35;97994.41;4973846;28;102600;-91
2021/09/17 07:43:57;;;;;;;;;1.67;1.67;;;;;21.04;54.33;97997.16;4975053;28;104084;-91
2021/09/17 07:46:25;;;;;;;;;1.00;1.00;;;;;21.01;54.74;97999.66;4976649;28;102373;-91
2021/09/17 07:48:52;;;;;;;;;2.00;2.00;;;;;21.02;54.29;98002.13;4980306;28;103152;-91
2021/09/17 07:51:19;;;;;;;;;2.67;2.00;;;;;21.01;54.23;98005.97;4977251;28;103181;-92
2021/09/17 07:53:46;;;;;;;;;2.00;2.00;;;;;21.01;54.45;98005.16;4979865;28;104099;-91
2021/09/17 07:56:13;;;;;;;;;2.00;2.00;;;;;20.99;54.72;98008.19;4979034;28;102441;-91
2021/09/17 07:58:41;;;;;;;;;2.33;2.33;;;;;21.01;54.26;98005.16;4977719;28;102145;-91
2021/09/17 08:01:08;;;;;;;;;2.00;2.00;;;;;21.02;54.47;98013.13;4977702;28;102934;-91
2021/09/17 08:03:35;;;;;;;;;2.33;2.00;;;;;21.06;54.23;98005.13;4979128;28;104101;-91
2021/09/17 08:06:03;;;;;;;;;1.67;1.67;;;;;21.03;54.46;98001.00;4974769;28;103296;-91
2021/09/17 08:08:30;;;;;;;;;1.00;1.00;;;;;21.01;54.53;98005.97;4976178;28;102763;-91
2021/09/17 08:10:57;;;;;;;;;2.33;2.33;;;;;21.02;54.50;98013.13;4974118;28;102632;-91
2021/09/17 08:13:25;;;;;;;;;2.33;2.00;;;;;21.03;54.62;98006.50;4974778;28;104278;-91
2021/09/17 08:15:54;;;;;;;;;3.67;3.67;;;;;21.01;54.67;98016.97;4971493;28;102433;-91
2021/09/17 08:18:22;;;;;;;;;2.00;2.00;;;;;20.98;54.55;98012.06;4974411;28;102603;-91
2021/09/17 08:20:53;;;;;;;;;3.00;3.00;;;;;21.01;54.30;98016.97;4968894;28;102492;-91
2021/09/17 08:23:21;;;;;;;;;2.67;0.67;;;;;20.99;54.36;98024.66;4972816;28;104151;-91
2021/09/17 08:25:54;;;;;;;;;2.67;2.00;;;;;20.97;54.70;98015.91;4976640;28;102177;-91
2021/09/17 08:28:24;;;;;;;;;2.00;2.00;;;;;20.97;54.79;98013.16;4972762;28;102288;-91
2021/09/17 08:30:51;;;;;;;;;2.33;1.67;;;;;20.96;54.79;98019.75;4971885;28;102273;-91
2021/09/17 08:33:19;;;;;;;;;2.33;2.33;;;;;20.96;54.71;98017.00;4973126;28;104241;-91
2021/09/17 08:35:46;;;;;;;;;3.00;2.00;;;;;20.98;54.70;98024.97;4977491;28;102244;-91
2021/09/17 08:38:13;;;;;;;;;2.00;2.00;;;;;21.00;54.44;98022.75;4976965;28;103070;-91
2021/09/17 08:40:42;;;;;;;;;1.67;1.67;;;;;20.99;54.66;98023.84;4978574;28;102702;-90
2021/09/17 08:43:09;;;;;;;;;2.00;2.00;;;;;20.99;54.61;98030.16;4979857;28;104142;-91
2021/09/17 08:45:38;;;;;;;;;2.00;2.00;;;;;21.00;54.62;98023.56;4978851;28;102122;-91
2021/09/17 08:48:05;;;;;;;;;1.33;1.33;;;;;20.99;54.63;98024.66;4976748;28;102502;-91
2021/09/17 08:50:32;;;;;;;;;1.33;1.00;;;;;21.00;54.78;98031.00;4959804;28;102580;-91
2021/09/17 08:52:59;;;;;;;;;2.33;1.67;;;;;20.99;54.35;98030.16;4980120;28;104092;-91
2021/09/17 08:55:26;;;;;;;;;2.00;1.00;;;;;20.97;54.88;98034.31;4973769;28;102163;-91
2021/09/17 08:57:53;;;;;;;;;1.33;1.33;;;;;20.96;55.00;98033.47;4973563;28;102528;-91
2021/09/17 09:00:27;;;;;;;;;2.33;2.00;;;;;20.97;55.01;98031.56;4976751;28;102577;-91
2021/09/17 09:02:54;;;;;;;;;2.00;2.00;;;;;20.95;55.25;98029.09;4978986;28;104144;-91
2021/09/17 09:05:31;;;;;;;;;3.33;2.33;;;;;20.95;54.72;98026.34;4978825;28;102176;-91
2021/09/17 09:07:58;;;;;;;;;2.00;2.00;;;;;20.94;55.08;98028.25;4980062;28;102460;-91
2021/09/17 09:10:26;;;;;;;;;2.00;2.00;;;;;20.96;55.22;98029.91;4977594;28;102708;-91
2021/09/17 09:12:54;;;;;;;;;1.00;1.00;;;;;20.97;54.56;98028.81;4980953;28;104303;-92
2021/09/17 09:15:30;;;;;;;;;2.00;1.00;;;;;20.98;54.96;98022.22;4979681;28;103263;-91
2021/09/17 09:18:00;;;;;;;;;2.33;0.67;;;;;21.01;54.51;98029.91;4978670;28;102915;-92
2021/09/17 09:20:57;;;;;;;;;3.67;2.00;;;;;20.99;54.59;98024.66;4984638;28;102445;-90
2021/09/17 09:23:28;;;;;;;;;1.33;1.33;;;;;21.02;54.98;98026.88;4971831;28;104282;-93
2021/09/17 09:26:08;;;;;;;;;2.67;2.33;;;;;21.02;54.57;98032.38;4976278;28;102839;-92
2021/09/17 09:28:39;;;;;;;;;1.00;1.00;;;;;21.00;55.14;98023.56;4980853;28;102379;-93
2021/09/17 09:31:10;;;;;;;;;2.33;2.00;;;;;20.99;54.72;98018.34;4978562;28;102541;-92
2021/09/17 09:33:46;;;;;;;;;1.00;1.00;;;;;21.02;55.09;98017.78;4975344;28;104361;-92
2021/09/17 09:36:18;;;;;;;;;1.67;1.67;;;;;21.01;55.22;98019.72;4975608;28;105543;-92
2021/09/17 09:38:49;;;;;;;;;0.67;0.67;;;;;21.02;55.21;98017.78;4976074;28;102617;-92
2021/09/17 09:41:21;;;;;;;;;2.00;1.67;;;;;21.01;55.30;98022.47;4973286;28;102469;-92
2021/09/17 09:44:15;;;;;;;;;2.00;2.00;;;;;21.03;55.26;98019.44;4974904;28;104083;-92
2021/09/17 09:46:43;;;;;;;;;2.00;1.33;;;;;21.01;54.92;98007.91;4973300;28;102145;-92
2021/09/17 09:49:28;;;;;;;;;3.00;2.00;;;;;21.01;55.44;98013.41;4975592;28;102259;-91
2021/09/17 09:52:08;;;;;;;;;2.00;2.00;;;;;21.02;55.38;98007.63;4974415;28;102509;-92
2021/09/17 09:54:36;;;;;;;;;1.00;1.00;;;;;21.04;55.20;98010.91;4978094;28;104336;-92
2021/09/17 09:57:04;;;;;;;;;1.67;1.67;;;;;21.05;54.80;98012.56;4979936;28;102184;-92
2021/09/17 09:59:32;;;;;;;;;2.00;2.00;;;;;21.05;55.47;98008.97;4978219;28;102317;-91
2021/09/17 10:02:02;;;;;;;;;3.33;3.33;;;;;21.06;55.35;98008.72;4973254;28;102471;-92
2021/09/17 10:04:30;;;;;;;;;1.67;1.67;;;;;21.04;55.03;98016.41;4975674;28;104124;-92
2021/09/17 10:07:05;;;;;;;;;2.67;2.67;;;;;21.05;55.16;98009.81;4973626;28;103145;-92
2021/09/17 10:09:35;;;;;;;;;2.67;2.67;;;;;21.05;55.52;98015.31;4975749;28;102271;-92
2021/09/17 10:12:04;;;;;;;;;2.00;2.00;;;;;21.06;55.67;98008.72;4976695;28;102192;-92
2021/09/17 10:14:31;;;;;;;;;2.67;2.67;;;;;21.07;54.98;98009.53;4970130;28;104393;-92
2021/09/17 10:16:59;;;;;;;;;4.00;3.00;;;;;21.07;55.49;98006.78;4972261;28;102174;-92
2021/09/17 10:19:27;;;;;;;;;1.00;1.00;;;;;21.06;55.30;98005.97;4979437;28;102579;-92
2021/09/17 10:21:58;;;;;;;;;4.33;3.67;;;;;21.07;55.70;98013.09;4969076;28;103742;-92
2021/09/17 10:24:25;;;;;;;;;3.33;3.33;;;;;21.08;55.75;97994.66;4974766;28;104272;-92
2021/09/17 10:27:08;;;;;;;;;6.00;5.00;;;;;21.10;55.53;97997.97;4971536;28;102225;-92
2021/09/17 10:29:39;;;;;;;;;4.67;4.33;;;;;21.12;55.49;97996.56;4972160;28;102727;-92
2021/09/17 10:32:28;;;;;;;;;2.00;2.00;;;;;21.13;55.41;97990.00;4976604;28;102982;-92
2021/09/17 10:35:19;;;;;;;;;5.00;3.00;;;;;21.17;55.36;97985.56;4974413;28;104011;-92
2021/09/17 10:37:58;;;;;;;;;3.67;3.67;;;;;21.17;55.23;97988.31;4973796;28;102513;-92
2021/09/17 10:40:35;;;;;;;;;3.00;3.00;;;;;21.19;55.20;97982.53;4975663;28;103029;-92
2021/09/17 10:43:22;;;;;;;;;3.67;3.67;;;;;21.18;55.44;97984.47;4974105;28;104347;-92
2021/09/17 10:46:33;;;;;;;;;5.00;4.33;;;;;21.16;55.11;97986.69;4977504;28;104048;-92
2021/09/17 10:49:02;;;;;;;;;3.33;3.33;;;;;21.17;55.46;97976.50;4972618;28;103118;-92
2021/09/17 10:51:39;;;;;;;;;5.00;4.00;;;;;21.18;55.58;97976.22;4976853;28;102350;-92
2021/09/17 10:54:13;;;;;;;;;5.33;4.67;;;;;21.19;55.73;97977.88;4979484;28;102141;-92
2021/09/17 10:56:50;;;;;;;;;4.67;3.00;;;;;21.19;55.73;97979.78;4974698;28;104177;-92
2021/09/17 10:59:21;;;;;;;;;5.00;4.67;;;;;21.19;55.61;97971.53;4970754;28;102519;-92
2021/09/17 11:01:50;;;;;;;;;4.00;4.00;;;;;21.18;55.78;97973.47;4976058;28;102155;-92
2021/09/17 11:04:31;;;;;;;;;5.00;5.00;;;;;21.18;55.65;97967.97;4976928;28;102211;-92
2021/09/17 11:07:19;;;;;;;;;4.00;4.00;;;;;21.19;55.97;97977.88;4980467;28;104281;-92
2021/09/17 11:09:47;;;;;;;;;5.33;4.67;;;;;21.20;55.52;97968.50;4978346;28;102321;-92
2021/09/17 11:12:28;;;;;;;;;5.67;5.33;;;;;21.20;55.99;97965.75;4980870;28;102395;-92
2021/09/17 11:15:06;;;;;;;;;4.33;3.67;;;;;21.24;56.39;97971.50;4973788;28;102495;-92
2021/09/17 11:17:48;;;;;;;;;5.00;4.00;;;;;21.21;56.04;97969.31;4975892;28;104162;-92
2021/09/17 11:20:19;;;;;;;;;5.00;4.33;;;;;21.22;55.78;97969.03;4972335;28;102539;-92
2021/09/17 11:22:58;;;;;;;;;7.33;5.67;;;;;21.22;56.17;97968.22;4974211;28;102404;-92
2021/09/17 11:25:47;;;;;;;;;4.67;4.67;;;;;21.22;56.38;97959.97;4971905;28;102522;-91
2021/09/17 11:28:33;;;;;;;;;4.00;4.00;;;;;21.23;56.20;97956.94;4975338;28;104126;-91
2021/09/17 11:31:14;;;;;;;;;5.00;5.00;;;;;21.25;56.04;97956.66;4977758;28;102145;-92
2021/09/17 11:33:41;;;;;;;;;5.00;5.00;;;;;21.24;56.36;97958.59;4972544;28;102220;-92
2021/09/17 11:36:09;;;;;;;;;6.33;6.00;;;;;21.25;56.05;97964.91;4982814;28;104130;-92
2021/09/17 11:38:36;;;;;;;;;4.33;4.00;;;;;21.24;56.11;97957.75;4975245;28;104038;-92